Time;durP1;ratioP1;P1;durP2;ratioP2;P2;SDS_P1;SDS_P2;PMS_P1;PMS_P2;Temp;Humidity;BMP_temperature;BMP_pressure;BME280_temperature;BME280_humidity;BME280_pressure;Samples;Min_cycle;Max_cycle;Signal;HPM_P1;HPM_P2
2022/04/14 00:00:38;;;;;;;;;;;;;;;21.72;34.24;95525.28;2060252;28;1711;-67
2022/04/14 00:01:40;;;;;;;;;;;;;;;21.72;34.01;95521.78;2062136;28;1694;-67
2022/04/14 00:02:42;;;;;;;;;;;;;;;21.77;34.34;95517.47;2060868;28;1633;-67
2022/04/14 00:03:44;;;;;;;;;;;;;;;21.77;34.14;95519.28;2057453;28;1085;-67
2022/04/14 00:04:45;;;;;;;;;;;;;;;21.79;34.36;95520.72;2056994;28;1521;-67
2022/04/14 00:05:47;;;;;;;;;;;;;;;21.78;34.39;95523.63;2058152;28;1538;-67
2022/04/14 00:06:48;;;;;;;;;;;;;;;21.83;34.12;95516.63;2058270;28;1078;-67
2022/04/14 00:07:50;;;;;;;;;;;;;;;21.84;34.17;95522.81;2049467;29;995;-67
2022/04/14 00:08:52;;;;;;;;;;;;;;;21.83;34.26;95515.81;2054387;28;1650;-67
2022/04/14 00:09:53;;;;;;;;;;;;;;;21.81;33.89;95512.50;2071260;28;1634;-67
2022/04/14 00:10:55;;;;;;;;;;;;;;;21.81;34.26;95512.50;2070049;28;1902;-68
2022/04/14 00:11:56;;;;;;;;;;;;;;;21.80;34.09;95513.56;2065194;28;1719;-68
2022/04/14 00:12:58;;;;;;;;;;;;;;;21.79;34.25;95510.03;2065904;28;1216;-67
2022/04/14 00:14:00;;;;;;;;;;;;;;;21.81;34.09;95515.19;2065612;28;1606;-67
2022/04/14 00:15:02;;;;;;;;;;;;;;;21.80;34.36;95516.22;2065842;28;1121;-68
2022/04/14 00:16:04;;;;;;;;;;;;;;;21.84;34.29;95512.09;2066184;28;1105;-68
2022/04/14 00:17:06;;;;;;;;;;;;;;;21.83;34.06;95513.13;2066188;28;1068;-68
2022/04/14 00:18:08;;;;;;;;;;;;;;;21.84;34.22;95514.78;2064860;28;1495;-64
2022/04/14 00:19:09;;;;;;;;;;;;;;;21.61;34.42;95513.34;2060167;28;1744;-67
2022/04/14 00:20:11;;;;;;;;;;;;;;;21.50;34.61;95516.63;2059975;28;1572;-68
2022/04/14 00:21:13;;;;;;;;;;;;;;;21.36;34.72;95510.44;2065411;28;1657;-68
2022/04/14 00:22:15;;;;;;;;;;;;;;;21.29;34.97;95503.47;2061132;28;1284;-68
2022/04/14 00:23:17;;;;;;;;;;;;;;;21.21;35.32;95507.97;2060082;28;1596;-68
2022/04/14 00:24:18;;;;;;;;;;;;;;;21.19;35.46;95504.66;2065527;28;1113;-68
2022/04/14 00:25:20;;;;;;;;;;;;;;;21.14;35.42;95496.44;2058631;28;1723;-67
2022/04/14 00:26:21;;;;;;;;;;;;;;;21.10;35.39;95500.50;2065347;28;1714;-68
2022/04/14 00:27:23;;;;;;;;;;;;;;;21.09;35.59;95498.88;2065175;28;1070;-67
2022/04/14 00:28:25;;;;;;;;;;;;;;;21.08;35.37;95497.22;2057735;28;1658;-67
2022/04/14 00:29:26;;;;;;;;;;;;;;;21.07;35.47;95500.94;2071274;28;1685;-68
2022/04/14 00:30:28;;;;;;;;;;;;;;;21.07;35.56;95502.78;2074481;28;1205;-68
2022/04/14 00:31:30;;;;;;;;;;;;;;;21.07;35.68;95503.59;2067001;28;1894;-67
2022/04/14 00:32:31;;;;;;;;;;;;;;;21.05;35.66;95502.97;2057418;28;1117;-67
2022/04/14 00:33:33;;;;;;;;;;;;;;;21.02;35.69;95501.53;2052776;28;1655;-68
2022/04/14 00:34:35;;;;;;;;;;;;;;;21.03;35.67;95499.69;2060410;28;1367;-68
2022/04/14 00:35:36;;;;;;;;;;;;;;;21.01;35.68;95507.91;2065335;28;1515;-69
2022/04/14 00:36:38;;;;;;;;;;;;;;;21.01;35.79;95507.91;2055318;28;1564;-68
2022/04/14 00:37:40;;;;;;;;;;;;;;;21.01;36.05;95509.75;2057037;28;1729;-67
2022/04/14 00:38:42;;;;;;;;;;;;;;;21.01;35.90;95504.41;2065339;28;1075;-67
2022/04/14 00:39:44;;;;;;;;;;;;;;;21.01;35.86;95502.56;2072874;28;1688;-68
2022/04/14 00:40:47;;;;;;;;;;;;;;;20.98;35.99;95504.81;2074075;28;1054;-67
2022/04/14 00:41:48;;;;;;;;;;;;;;;21.00;35.84;95508.94;2064905;28;1097;-66
2022/04/14 00:42:50;;;;;;;;;;;;;;;21.01;35.87;95509.75;2064834;28;1490;-65
2022/04/14 00:43:52;;;;;;;;;;;;;;;21.03;36.11;95510.38;2074025;28;1183;-65
2022/04/14 00:44:54;;;;;;;;;;;;;;;21.00;36.30;95510.78;2069845;28;1018;-66
2022/04/14 00:45:55;;;;;;;;;;;;;;;20.99;36.36;95509.94;2067412;28;1561;-65
2022/04/14 00:46:57;;;;;;;;;;;;;;;21.00;36.27;95516.94;2065985;28;1047;-65
2022/04/14 00:47:59;;;;;;;;;;;;;;;21.00;36.33;95516.13;2065595;28;1485;-65
2022/04/14 00:49:01;;;;;;;;;;;;;;;21.00;36.39;95513.47;2066103;28;1741;-68
2022/04/14 00:50:03;;;;;;;;;;;;;;;21.01;36.16;95509.75;2065909;28;1069;-64
2022/04/14 00:51:07;;;;;;;;;;;;;;;21.02;36.59;95516.75;2065641;28;2019;-66
2022/04/14 00:52:08;;;;;;;;;;;;;;;21.02;36.47;95511.38;2065544;28;1112;-64
2022/04/14 00:53:11;;;;;;;;;;;;;;;21.00;36.34;95516.13;2063693;28;2087;-64
2022/04/14 00:54:12;;;;;;;;;;;;;;;21.02;36.42;95519.41;2065189;28;1117;-64
2022/04/14 00:55:14;;;;;;;;;;;;;;;21.02;36.42;95519.41;2064222;28;1770;-65
2022/04/14 00:56:15;;;;;;;;;;;;;;;21.02;36.33;95508.72;2060969;28;1118;-65
2022/04/14 00:57:18;;;;;;;;;;;;;;;21.00;36.42;95513.47;2064468;28;1714;-66
2022/04/14 00:58:19;;;;;;;;;;;;;;;20.99;36.53;95514.47;2073679;28;1295;-65
2022/04/14 00:59:21;;;;;;;;;;;;;;;20.99;36.49;95509.13;2072169;28;1643;-65
2022/04/14 01:00:22;;;;;;;;;;;;;;;21.00;36.64;95516.13;2073929;28;1121;-65
2022/04/14 01:01:24;;;;;;;;;;;;;;;20.98;36.59;95515.50;2073905;28;973;-64
2022/04/14 01:02:26;;;;;;;;;;;;;;;20.98;36.75;95518.19;2074000;28;1073;-65
2022/04/14 01:03:28;;;;;;;;;;;;;;;20.98;36.87;95518.19;2064782;28;1008;-65
2022/04/14 01:04:30;;;;;;;;;;;;;;;21.03;36.51;95515.72;2065536;28;1078;-62
2022/04/14 01:05:32;;;;;;;;;;;;;;;21.06;36.74;95519.81;2070271;28;1405;-64
2022/04/14 01:06:33;;;;;;;;;;;;;;;21.09;36.58;95514.09;2067164;28;1870;-63
2022/04/14 01:07:36;;;;;;;;;;;;;;;21.11;36.59;95518.19;2060617;28;1496;-64
2022/04/14 01:08:38;;;;;;;;;;;;;;;21.13;36.36;95521.47;2061082;28;1153;-63
2022/04/14 01:09:39;;;;;;;;;;;;;;;21.16;36.52;95521.06;2070492;28;1704;-62
2022/04/14 01:10:48;;;;;;;;;;;;;;;21.17;36.48;95522.78;2064491;28;1589;-64
2022/04/14 01:11:51;;;;;;;;;;;;;;;21.18;36.41;95524.41;2065589;28;1900;-63
2022/04/14 01:12:53;;;;;;;;;;;;;;;21.18;36.57;95521.75;2065734;28;1420;-64
2022/04/14 01:13:55;;;;;;;;;;;;;;;21.19;36.54;95515.34;2065833;28;1157;-65
2022/04/14 01:14:56;;;;;;;;;;;;;;;21.24;36.32;95517.44;2065895;28;1100;-66
2022/04/14 01:15:59;;;;;;;;;;;;;;;21.28;36.10;95528.53;2065277;28;1539;-64
2022/04/14 01:17:04;;;;;;;;;;;;;;;21.30;36.19;95527.31;2062637;28;1604;-64
2022/04/14 01:18:06;;;;;;;;;;;;;;;21.30;36.41;95526.50;2057960;28;990;-65
2022/04/14 01:19:08;;;;;;;;;;;;;;;21.35;36.17;95530.19;2060182;28;1680;-63
2022/04/14 01:20:11;;;;;;;;;;;;;;;21.33;36.03;95526.06;2060751;28;1105;-69
2022/04/14 01:21:13;;;;;;;;;;;;;;;21.28;36.30;95523.19;2065703;28;1310;-67
2022/04/14 01:22:22;;;;;;;;;;;;;;;21.20;36.40;95522.38;2056742;28;1116;-67
2022/04/14 01:23:36;;;;;;;;;;;;;;;21.14;36.65;95536.50;2058489;28;1057;-67
2022/04/14 01:24:38;;;;;;;;;;;;;;;21.11;36.57;95528.88;2063155;28;1691;-67
2022/04/14 01:25:40;;;;;;;;;;;;;;;21.12;36.71;95535.88;2064957;28;1070;-67
2022/04/14 01:26:42;;;;;;;;;;;;;;;21.09;36.96;95530.13;2064353;28;1704;-67
2022/04/14 01:27:43;;;;;;;;;;;;;;;21.09;36.87;95530.13;2065251;28;1528;-67
2022/04/14 01:28:45;;;;;;;;;;;;;;;21.06;36.65;95536.69;2065726;28;1554;-66
2022/04/14 01:29:47;;;;;;;;;;;;;;;21.06;36.52;95535.84;2070145;28;1701;-68
2022/04/14 01:30:48;;;;;;;;;;;;;;;21.04;36.72;95533.41;2055530;28;1478;-70
2022/04/14 01:31:50;;;;;;;;;;;;;;;21.04;36.94;95544.09;2064370;28;2029;-67
2022/04/14 01:32:52;;;;;;;;;;;;;;;21.06;36.95;95542.03;2065871;28;1188;-66
2022/04/14 01:33:54;;;;;;;;;;;;;;;21.06;36.84;95533.19;2065250;28;1133;-66
2022/04/14 01:34:55;;;;;;;;;;;;;;;21.05;36.97;95537.69;2065839;28;777;-66
2022/04/14 01:35:57;;;;;;;;;;;;;;;21.05;36.73;95540.38;2065726;28;1041;-67
2022/04/14 01:37:00;;;;;;;;;;;;;;;21.02;36.83;95535.44;2065268;28;1475;-67
2022/04/14 01:38:01;;;;;;;;;;;;;;;21.02;36.71;95540.78;2064517;28;1713;-67
2022/04/14 01:39:03;;;;;;;;;;;;;;;21.02;36.90;95540.78;2057129;28;1704;-66
2022/04/14 01:40:05;;;;;;;;;;;;;;;21.00;36.84;95542.84;2065198;28;1193;-67
2022/04/14 01:41:06;;;;;;;;;;;;;;;21.00;36.90;95537.50;2073460;28;1310;-68
2022/04/14 01:42:08;;;;;;;;;;;;;;;20.99;36.69;95536.66;2061160;28;1614;-68
2022/04/14 01:43:10;;;;;;;;;;;;;;;20.96;36.88;95531.72;2064618;28;1128;-65
2022/04/14 01:44:12;;;;;;;;;;;;;;;20.96;36.73;95541.59;2065643;28;1083;-67
2022/04/14 01:45:13;;;;;;;;;;;;;;;20.97;36.78;95538.72;2065123;28;1423;-66
2022/04/14 01:46:15;;;;;;;;;;;;;;;20.96;36.65;95536.25;2064346;28;1487;-66
2022/04/14 01:47:17;;;;;;;;;;;;;;;20.97;36.80;95532.53;2065177;28;1089;-67
2022/04/14 01:48:18;;;;;;;;;;;;;;;20.96;36.84;95529.06;2065249;28;1171;-66
2022/04/14 01:49:20;;;;;;;;;;;;;;;20.96;36.63;95530.91;2069097;28;1502;-67
2022/04/14 01:50:22;;;;;;;;;;;;;;;20.97;36.85;95538.72;2075479;28;995;-66
2022/04/14 01:51:23;;;;;;;;;;;;;;;20.98;36.67;95528.88;2074069;28;1998;-69
2022/04/14 01:52:25;;;;;;;;;;;;;;;20.96;36.69;95533.56;2061900;28;1511;-67
2022/04/14 01:53:27;;;;;;;;;;;;;;;20.96;36.75;95537.06;2052211;28;1203;-68
2022/04/14 01:54:28;;;;;;;;;;;;;;;20.97;36.69;95529.88;2065234;28;1521;-66
2022/04/14 01:55:30;;;;;;;;;;;;;;;20.96;36.80;95531.72;2064088;28;1589;-67
2022/04/14 01:56:32;;;;;;;;;;;;;;;20.96;36.57;95530.91;2067472;28;1747;-66
2022/04/14 01:57:33;;;;;;;;;;;;;;;20.97;36.92;95532.53;2066739;28;1517;-67
2022/04/14 01:58:35;;;;;;;;;;;;;;;20.96;36.88;95537.06;2066472;28;1176;-67
2022/04/14 01:59:37;;;;;;;;;;;;;;;20.95;36.63;95542.63;2058261;28;1088;-67
2022/04/14 02:00:38;;;;;;;;;;;;;;;20.96;36.81;95533.56;2058601;28;1484;-70
2022/04/14 02:01:40;;;;;;;;;;;;;;;20.97;36.83;95543.22;2068420;28;1589;-71
2022/04/14 02:02:42;;;;;;;;;;;;;;;20.96;36.87;95545.06;2058131;28;1228;-71
2022/04/14 02:03:44;;;;;;;;;;;;;;;20.96;36.99;95539.75;2058351;28;1575;-70
2022/04/14 02:04:46;;;;;;;;;;;;;;;20.93;36.74;95539.31;2061742;28;1030;-69
2022/04/14 02:05:48;;;;;;;;;;;;;;;20.95;36.81;95545.28;2057957;28;1678;-70
2022/04/14 02:06:49;;;;;;;;;;;;;;;20.96;37.03;95546.94;2058822;28;1002;-70
2022/04/14 02:07:51;;;;;;;;;;;;;;;20.96;36.77;95546.94;2066672;28;1124;-70
2022/04/14 02:08:52;;;;;;;;;;;;;;;20.96;37.06;95547.75;2075409;28;1252;-71
2022/04/14 02:09:54;;;;;;;;;;;;;;;20.98;36.78;95544.91;2074861;28;1218;-71
2022/04/14 02:10:56;;;;;;;;;;;;;;;20.97;37.04;95548.56;2062774;28;1911;-70
2022/04/14 02:11:57;;;;;;;;;;;;;;;20.95;37.05;95534.63;2059755;28;1918;-70
2022/04/14 02:12:59;;;;;;;;;;;;;;;20.94;36.89;95544.47;2064707;28;1669;-70
2022/04/14 02:14:01;;;;;;;;;;;;;;;20.93;37.19;95539.31;2066711;28;1183;-70
2022/04/14 02:15:03;;;;;;;;;;;;;;;20.93;36.84;95537.47;2070655;28;1562;-71
2022/04/14 02:16:05;;;;;;;;;;;;;;;20.94;36.87;95541.81;2061736;28;1488;-71
2022/04/14 02:17:06;;;;;;;;;;;;;;;20.96;36.83;95544.25;2063458;28;1192;-67
2022/04/14 02:18:08;;;;;;;;;;;;;;;20.95;36.91;95545.28;2066539;28;1172;-67
2022/04/14 02:19:09;;;;;;;;;;;;;;;20.95;36.80;95542.63;2066003;28;1470;-66
2022/04/14 02:20:11;;;;;;;;;;;;;;;20.94;37.01;95544.47;2066521;28;1776;-69
2022/04/14 02:21:13;;;;;;;;;;;;;;;20.96;37.19;95549.59;2064835;28;1781;-70
2022/04/14 02:22:14;;;;;;;;;;;;;;;20.94;37.17;95533.78;2066566;28;998;-72
2022/04/14 02:23:16;;;;;;;;;;;;;;;20.95;37.14;95537.28;2067227;28;1113;-72
2022/04/14 02:24:17;;;;;;;;;;;;;;;20.95;37.06;95538.09;2066964;28;1101;-72
2022/04/14 02:25:20;;;;;;;;;;;;;;;20.94;37.30;95539.13;2066780;28;995;-71
2022/04/14 02:26:22;;;;;;;;;;;;;;;20.94;37.00;95535.63;2066938;28;1061;-71
2022/04/14 02:27:25;;;;;;;;;;;;;;;20.93;36.96;95539.31;2060627;28;1550;-70
2022/04/14 02:28:27;;;;;;;;;;;;;;;20.93;37.08;95531.31;2062815;28;1670;-69
2022/04/14 02:29:28;;;;;;;;;;;;;;;20.94;37.15;95543.63;2066885;28;1108;-67
2022/04/14 02:30:30;;;;;;;;;;;;;;;20.93;37.15;95528.63;2062455;28;1401;-68
2022/04/14 02:31:31;;;;;;;;;;;;;;;20.94;37.33;95527.59;2057660;28;1814;-68
2022/04/14 02:32:33;;;;;;;;;;;;;;;20.93;37.16;95533.97;2065663;28;2045;-67
2022/04/14 02:33:34;;;;;;;;;;;;;;;20.94;37.25;95532.94;2066907;28;1160;-67
2022/04/14 02:34:36;;;;;;;;;;;;;;;20.94;37.29;95533.78;2065646;28;1499;-69
2022/04/14 02:35:38;;;;;;;;;;;;;;;20.95;37.27;95537.28;2067049;28;1007;-67
2022/04/14 02:36:39;;;;;;;;;;;;;;;20.96;37.20;95528.22;2067162;28;1080;-67
2022/04/14 02:37:41;;;;;;;;;;;;;;;20.95;37.51;95532.75;2066336;28;1014;-66
2022/04/14 02:38:43;;;;;;;;;;;;;;;20.95;37.35;95526.59;2061855;28;1088;-72
2022/04/14 02:39:45;;;;;;;;;;;;;;;20.94;37.38;95523.09;2061948;28;1232;-70
2022/04/14 02:40:46;;;;;;;;;;;;;;;20.95;37.39;95529.28;2067611;28;1820;-70
2022/04/14 02:41:48;;;;;;;;;;;;;;;20.95;37.22;95530.09;2066109;28;1574;-72
2022/04/14 02:42:50;;;;;;;;;;;;;;;20.95;37.20;95534.63;2066347;28;1101;-72
2022/04/14 02:43:52;;;;;;;;;;;;;;;20.96;37.19;95530.91;2066180;28;1667;-72
2022/04/14 02:44:54;;;;;;;;;;;;;;;20.97;37.31;95528.03;2066942;28;1101;-70
2022/04/14 02:45:57;;;;;;;;;;;;;;;20.96;37.56;95530.91;2067017;28;1508;-70
2022/04/14 02:46:59;;;;;;;;;;;;;;;20.96;37.31;95526.38;2066395;28;1564;-71
2022/04/14 02:48:00;;;;;;;;;;;;;;;20.96;37.50;95530.91;2067059;28;1113;-71
2022/04/14 02:49:02;;;;;;;;;;;;;;;20.95;37.27;95534.63;2066806;28;1673;-72
2022/04/14 02:50:04;;;;;;;;;;;;;;;20.94;37.24;95531.13;2061998;28;1705;-70
2022/04/14 02:51:06;;;;;;;;;;;;;;;20.95;37.17;95529.28;2066396;28;1592;-71
2022/04/14 02:52:08;;;;;;;;;;;;;;;20.94;37.42;95532.94;2074737;28;2001;-70
2022/04/14 02:53:10;;;;;;;;;;;;;;;20.94;37.26;95533.78;2075094;28;1116;-70
2022/04/14 02:54:12;;;;;;;;;;;;;;;20.95;37.39;95534.63;2071058;28;1526;-70
2022/04/14 02:55:13;;;;;;;;;;;;;;;20.95;37.30;95531.94;2057119;28;1605;-70
2022/04/14 02:56:15;;;;;;;;;;;;;;;20.95;37.27;95539.94;2058312;28;1172;-72
2022/04/14 02:57:16;;;;;;;;;;;;;;;20.95;37.29;95542.63;2066688;28;1172;-70
2022/04/14 02:58:19;;;;;;;;;;;;;;;20.94;37.36;95543.63;2066745;28;1097;-69
2022/04/14 02:59:20;;;;;;;;;;;;;;;20.93;37.17;95531.31;2066504;28;1033;-71
2022/04/14 03:00:22;;;;;;;;;;;;;;;20.93;37.17;95540.13;2066485;28;1011;-70
2022/04/14 03:01:23;;;;;;;;;;;;;;;20.95;37.27;95545.28;2062961;28;1664;-70
2022/04/14 03:02:25;;;;;;;;;;;;;;;20.95;37.30;95534.63;2062025;28;1728;-65
2022/04/14 03:03:28;;;;;;;;;;;;;;;20.59;29.16;95530.38;2067848;28;1611;-63
2022/04/14 03:04:30;;;;;;;;;;;;;;;18.39;27.31;95532.09;2057793;28;1659;-70
2022/04/14 03:05:31;;;;;;;;;;;;;;;16.80;28.84;95535.66;2058123;28;1773;-70
2022/04/14 03:06:33;;;;;;;;;;;;;;;15.74;29.70;95532.34;2058818;28;1060;-70
2022/04/14 03:07:35;;;;;;;;;;;;;;;15.31;30.33;95534.38;2058825;28;1054;-70
2022/04/14 03:08:36;;;;;;;;;;;;;;;14.67;31.19;95541.22;2058065;28;1526;-68
2022/04/14 03:09:38;;;;;;;;;;;;;;;14.42;31.73;95532.38;2062000;28;1635;-69
2022/04/14 03:10:39;;;;;;;;;;;;;;;14.21;31.44;95538.09;2063570;28;1745;-69
2022/04/14 03:11:41;;;;;;;;;;;;;;;13.89;31.86;95531.66;2066355;28;997;-70
2022/04/14 03:12:46;;;;;;;;;;;;;;;13.92;31.76;95536.63;2070186;28;1985;-70
2022/04/14 03:13:48;;;;;;;;;;;;;;;13.92;31.77;95541.09;2060707;28;1579;-70
2022/04/14 03:14:49;;;;;;;;;;;;;;;13.87;31.63;95538.91;2066820;28;1052;-69
2022/04/14 03:15:51;;;;;;;;;;;;;;;13.98;31.11;95541.28;2059220;28;1523;-70
2022/04/14 03:16:53;;;;;;;;;;;;;;;13.75;31.42;95546.28;2065988;28;1030;-69
2022/04/14 03:17:54;;;;;;;;;;;;;;;13.74;31.56;95547.28;2072030;28;1453;-70
2022/04/14 03:18:56;;;;;;;;;;;;;;;13.62;31.46;95551.97;2066614;28;1200;-70
2022/04/14 03:19:57;;;;;;;;;;;;;;;13.67;31.60;95551.50;2071049;28;1663;-70
2022/04/14 03:20:59;;;;;;;;;;;;;;;13.46;31.71;95551.84;2072396;28;1757;-69
2022/04/14 03:22:01;;;;;;;;;;;;;;;13.00;32.33;95551.09;2066042;28;1575;-69
2022/04/14 03:23:02;;;;;;;;;;;;;;;12.82;32.85;95551.09;2067045;28;1657;-69
2022/04/14 03:24:05;;;;;;;;;;;;;;;12.97;32.88;95553.22;2062835;28;1599;-69
2022/04/14 03:25:08;;;;;;;;;;;;;;;13.27;32.40;95558.13;2068549;28;1732;-69
2022/04/14 03:26:09;;;;;;;;;;;;;;;13.25;32.11;95556.59;2063891;28;1613;-69
2022/04/14 03:27:11;;;;;;;;;;;;;;;13.22;31.92;95557.72;2066049;28;1451;-70
2022/04/14 03:28:13;;;;;;;;;;;;;;;12.68;32.50;95556.91;2066469;28;1565;-69
2022/04/14 03:29:14;;;;;;;;;;;;;;;12.50;33.09;95559.50;2066488;28;1134;-69
2022/04/14 03:30:16;;;;;;;;;;;;;;;12.55;32.67;95559.91;2067753;28;1708;-69
2022/04/14 03:31:17;;;;;;;;;;;;;;;12.19;33.78;95561.59;2069147;28;1627;-68
2022/04/14 03:32:19;;;;;;;;;;;;;;;11.93;34.36;95556.97;2071952;28;1532;-69
2022/04/14 03:33:21;;;;;;;;;;;;;;;11.73;34.36;95553.56;2063438;28;1730;-69
2022/04/14 03:34:22;;;;;;;;;;;;;;;11.83;34.66;95556.16;2065723;28;1164;-69
2022/04/14 03:35:24;;;;;;;;;;;;;;;11.70;34.85;95545.97;2068207;28;1550;-69
2022/04/14 03:36:25;;;;;;;;;;;;;;;11.97;34.41;95553.06;2059067;28;1624;-70
2022/04/14 03:37:27;;;;;;;;;;;;;;;11.84;34.55;95555.22;2065432;28;1028;-71
2022/04/14 03:38:28;;;;;;;;;;;;;;;12.04;34.31;95541.00;2068747;28;1723;-69
2022/04/14 03:39:35;;;;;;;;;;;;;;;12.17;33.99;95548.53;2069237;28;1684;-69
2022/04/14 03:40:37;;;;;;;;;;;;;;;12.16;33.88;95548.72;2065062;28;1638;-69
2022/04/14 03:41:38;;;;;;;;;;;;;;;12.13;34.08;95551.63;2065687;28;1109;-68
2022/04/14 03:42:40;;;;;;;;;;;;;;;12.32;34.02;95556.00;2074469;28;1120;-70
2022/04/14 03:43:42;;;;;;;;;;;;;;;12.68;33.13;95549.81;2074580;28;1514;-68
2022/04/14 03:44:44;;;;;;;;;;;;;;;12.32;32.94;95545.44;2074397;28;1105;-68
2022/04/14 03:45:45;;;;;;;;;;;;;;;12.08;33.29;95546.78;2066053;28;1274;-71
2022/04/14 03:46:47;;;;;;;;;;;;;;;12.03;33.67;95549.03;2060914;28;1544;-70
2022/04/14 03:47:48;;;;;;;;;;;;;;;12.26;33.47;95554.78;2055928;28;1513;-68
2022/04/14 03:48:50;;;;;;;;;;;;;;;13.03;32.58;95555.25;2057795;28;1011;-66
2022/04/14 03:49:51;;;;;;;;;;;;;;;13.60;32.03;95561.03;2057770;28;1105;-73
2022/04/14 03:50:53;;;;;;;;;;;;;;;14.80;31.83;95562.78;2066467;28;1049;-71
2022/04/14 03:51:55;;;;;;;;;;;;;;;15.21;30.44;95565.47;2068539;28;1669;-71
2022/04/14 03:52:57;;;;;;;;;;;;;;;15.50;29.95;95570.28;2074240;28;1918;-69
2022/04/14 03:53:59;;;;;;;;;;;;;;;15.25;30.25;95566.81;2073355;28;938;-67
2022/04/14 03:55:01;;;;;;;;;;;;;;;15.05;31.17;95565.44;2073572;28;1164;-70
2022/04/14 03:56:02;;;;;;;;;;;;;;;14.77;31.49;95572.84;2074623;28;1029;-71
2022/04/14 03:57:04;;;;;;;;;;;;;;;14.56;31.77;95574.06;2074537;28;965;-68
2022/04/14 03:58:06;;;;;;;;;;;;;;;14.39;31.54;95572.34;2064385;28;1727;-68
2022/04/14 03:59:07;;;;;;;;;;;;;;;14.32;31.52;95569.53;2068626;28;1316;-67
2022/04/14 04:00:10;;;;;;;;;;;;;;;14.29;31.55;95564.56;2064244;28;1164;-69
2022/04/14 04:01:12;;;;;;;;;;;;;;;14.31;31.33;95567.84;2058895;28;1593;-69
2022/04/14 04:02:13;;;;;;;;;;;;;;;14.25;31.10;95563.22;2063361;28;1490;-69
2022/04/14 04:03:15;;;;;;;;;;;;;;;14.19;31.41;95566.50;2066926;28;1709;-68
2022/04/14 04:04:17;;;;;;;;;;;;;;;14.09;31.43;95573.72;2064711;28;1543;-67
2022/04/14 04:05:18;;;;;;;;;;;;;;;13.93;31.85;95563.88;2063849;28;1429;-68
2022/04/14 04:06:20;;;;;;;;;;;;;;;13.92;31.66;95565.69;2065888;28;1274;-69
2022/04/14 04:07:21;;;;;;;;;;;;;;;14.02;31.74;95566.41;2065904;28;1306;-69
2022/04/14 04:08:23;;;;;;;;;;;;;;;14.10;31.25;95564.78;2064839;28;1109;-68
2022/04/14 04:09:26;;;;;;;;;;;;;;;14.13;31.34;95564.47;2060891;28;1468;-72
2022/04/14 04:10:28;;;;;;;;;;;;;;;14.13;31.16;95567.13;2063544;28;1388;-69
2022/04/14 04:11:29;;;;;;;;;;;;;;;14.08;31.43;95567.59;2058606;28;1205;-72
2022/04/14 04:12:31;;;;;;;;;;;;;;;13.91;31.04;95571.13;2051457;28;1483;-73
2022/04/14 04:13:33;;;;;;;;;;;;;;;13.10;31.71;95566.88;2065147;28;1915;-70
2022/04/14 04:14:34;;;;;;;;;;;;;;;12.85;32.20;95568.44;2067635;28;1507;-70
2022/04/14 04:15:36;;;;;;;;;;;;;;;13.13;32.64;95567.41;2056754;28;1501;-69
2022/04/14 04:16:38;;;;;;;;;;;;;;;13.86;32.15;95574.25;2053521;28;1567;-72
2022/04/14 04:17:39;;;;;;;;;;;;;;;14.64;31.69;95563.53;2063114;28;1062;-72
2022/04/14 04:18:41;;;;;;;;;;;;;;;15.34;30.94;95565.81;2065417;28;1339;-72
2022/04/14 04:19:43;;;;;;;;;;;;;;;15.86;30.14;95567.31;2064766;28;1687;-72
2022/04/14 04:20:45;;;;;;;;;;;;;;;16.26;29.74;95565.53;2060091;28;1766;-70
2022/04/14 04:21:47;;;;;;;;;;;;;;;16.55;29.52;95559.63;2049974;28;1590;-72
2022/04/14 04:22:48;;;;;;;;;;;;;;;16.77;29.53;95564.16;2057015;28;1449;-73
2022/04/14 04:23:50;;;;;;;;;;;;;;;16.95;29.17;95565.75;2063782;28;1601;-70
2022/04/14 04:24:51;;;;;;;;;;;;;;;17.08;29.10;95568.66;2064854;28;997;-70
2022/04/14 04:25:53;;;;;;;;;;;;;;;17.19;29.23;95568.25;2064399;28;1232;-70
2022/04/14 04:26:55;;;;;;;;;;;;;;;17.30;29.03;95575.00;2064682;28;1093;-71
2022/04/14 04:27:57;;;;;;;;;;;;;;;17.38;29.24;95571.44;2065236;28;1337;-70
2022/04/14 04:28:58;;;;;;;;;;;;;;;17.45;29.24;95572.38;2065809;28;1003;-71
2022/04/14 04:30:00;;;;;;;;;;;;;;;17.50;29.25;95572.69;2066830;28;1144;-71
2022/04/14 04:31:02;;;;;;;;;;;;;;;17.57;29.12;95573.59;2073598;28;1164;-70
2022/04/14 04:32:03;;;;;;;;;;;;;;;17.61;29.04;95582.88;2060660;28;1148;-71
2022/04/14 04:33:05;;;;;;;;;;;;;;;17.65;29.04;95583.34;2060887;28;1910;-71
2022/04/14 04:34:07;;;;;;;;;;;;;;;17.71;29.24;95582.63;2073321;28;1047;-71
2022/04/14 04:35:09;;;;;;;;;;;;;;;17.75;29.24;95588.44;2073598;28;1074;-72
2022/04/14 04:36:11;;;;;;;;;;;;;;;17.78;29.17;95596.84;2065208;28;1204;-76
2022/04/14 04:37:12;;;;;;;;;;;;;;;17.83;29.18;95591.00;2065584;28;1118;-71
2022/04/14 04:38:14;;;;;;;;;;;;;;;17.86;29.12;95591.47;2073422;28;1102;-71
2022/04/14 04:39:16;;;;;;;;;;;;;;;17.90;29.36;95593.78;2073528;28;1029;-70
2022/04/14 04:40:18;;;;;;;;;;;;;;;17.93;29.38;95596.91;2073089;28;1029;-71
2022/04/14 04:41:20;;;;;;;;;;;;;;;17.96;29.37;95599.22;2073226;28;960;-72
2022/04/14 04:42:21;;;;;;;;;;;;;;;17.99;29.44;95598.84;2064465;28;1009;-71
2022/04/14 04:43:23;;;;;;;;;;;;;;;18.02;29.34;95605.63;2060335;28;1038;-71
2022/04/14 04:44:24;;;;;;;;;;;;;;;18.05;29.36;95606.09;2060128;28;1198;-69
2022/04/14 04:45:26;;;;;;;;;;;;;;;18.08;29.30;95610.22;2056343;28;1133;-70
2022/04/14 04:46:28;;;;;;;;;;;;;;;18.10;29.28;95609.03;2063989;28;1121;-71
2022/04/14 04:47:29;;;;;;;;;;;;;;;18.14;29.55;95611.34;2064695;28;1069;-71
2022/04/14 04:48:32;;;;;;;;;;;;;;;18.16;29.54;95606.66;2073300;28;1086;-70
2022/04/14 04:49:34;;;;;;;;;;;;;;;18.18;29.34;95615.28;2072999;28;1337;-70
2022/04/14 04:50:35;;;;;;;;;;;;;;;18.20;29.43;95618.59;2073315;28;1160;-70
2022/04/14 04:51:37;;;;;;;;;;;;;;;18.22;29.43;95613.91;2073508;28;1082;-70
2022/04/14 04:52:38;;;;;;;;;;;;;;;18.24;29.71;95620.72;2073073;28;1493;-70
2022/04/14 04:53:40;;;;;;;;;;;;;;;18.26;29.66;95615.19;2063886;28;1979;-70
2022/04/14 04:54:42;;;;;;;;;;;;;;;18.28;29.43;95615.84;2060905;28;1178;-70
2022/04/14 04:55:43;;;;;;;;;;;;;;;18.32;29.49;95619.78;2068169;28;1075;-70
2022/04/14 04:56:45;;;;;;;;;;;;;;;18.33;29.54;95622.28;2065286;28;1081;-70
2022/04/14 04:57:46;;;;;;;;;;;;;;;18.37;29.58;95624.56;2065244;28;1135;-69
2022/04/14 04:58:48;;;;;;;;;;;;;;;18.37;29.58;95620.06;2073257;28;1129;-70
2022/04/14 04:59:49;;;;;;;;;;;;;;;18.40;29.73;95630.34;2073954;28;1522;-71
2022/04/14 05:00:53;;;;;;;;;;;;;;;18.41;29.35;95625.84;2073747;28;1238;-70
2022/04/14 05:01:54;;;;;;;;;;;;;;;18.44;29.47;95626.31;2065158;28;1093;-70
2022/04/14 05:02:56;;;;;;;;;;;;;;;18.45;29.55;95625.31;2064549;28;1097;-70
2022/04/14 05:03:58;;;;;;;;;;;;;;;18.47;29.35;95631.28;2064938;28;1117;-70
2022/04/14 05:05:00;;;;;;;;;;;;;;;18.48;29.58;95626.78;2065533;28;1060;-69
2022/04/14 05:06:02;;;;;;;;;;;;;;;18.50;29.56;95630.91;2069216;28;1160;-70
2022/04/14 05:07:04;;;;;;;;;;;;;;;18.52;29.39;95631.56;2068943;28;1123;-69
2022/04/14 05:08:07;;;;;;;;;;;;;;;18.54;29.46;95640.16;2064590;28;1083;-70
2022/04/14 05:09:08;;;;;;;;;;;;;;;18.55;29.65;95643.66;2065536;28;1560;-69
2022/04/14 05:10:10;;;;;;;;;;;;;;;18.58;29.62;95637.13;2064914;28;1239;-70
2022/04/14 05:11:11;;;;;;;;;;;;;;;18.58;29.39;95647.78;2057273;28;1029;-69
2022/04/14 05:12:13;;;;;;;;;;;;;;;18.60;29.71;95646.59;2065245;28;1067;-70
2022/04/14 05:13:15;;;;;;;;;;;;;;;18.60;29.61;95635.13;2073647;28;1217;-70
2022/04/14 05:14:17;;;;;;;;;;;;;;;18.63;29.42;95638.22;2073571;28;1949;-69
2022/04/14 05:15:21;;;;;;;;;;;;;;;18.65;29.47;95638.06;2073379;28;1049;-70
2022/04/14 05:16:22;;;;;;;;;;;;;;;18.66;29.50;95639.72;2073953;28;1497;-69
2022/04/14 05:17:24;;;;;;;;;;;;;;;18.68;29.77;95643.88;2069556;28;1731;-70
2022/04/14 05:18:26;;;;;;;;;;;;;;;18.69;29.70;95639.38;2069038;28;1150;-68
2022/04/14 05:19:27;;;;;;;;;;;;;;;18.71;29.49;95642.69;2073485;28;1022;-69
2022/04/14 05:20:29;;;;;;;;;;;;;;;18.72;29.53;95639.00;2073347;28;1090;-69
2022/04/14 05:21:30;;;;;;;;;;;;;;;18.73;29.66;95640.66;2073096;28;1274;-69
2022/04/14 05:22:32;;;;;;;;;;;;;;;18.74;29.65;95637.78;2072509;28;961;-70
2022/04/14 05:23:34;;;;;;;;;;;;;;;18.76;29.64;95640.28;2073885;28;1047;-69
2022/04/14 05:24:35;;;;;;;;;;;;;;;18.77;29.66;95641.94;2073674;28;999;-70
2022/04/14 05:25:40;;;;;;;;;;;;;;;18.77;29.73;95641.94;2073887;28;981;-70
2022/04/14 05:26:42;;;;;;;;;;;;;;;18.78;29.64;95638.28;2064738;28;1151;-70